Latest Weather Observations for Narrabri

IDN60801

Issued at 3:02 pm EDT Saturday 21 January 2017 (issued every 30 minutes, with the page automatically refreshed every 10 minutes)

About weather observations | Map of weather stations | Latest weather observations for NSW | Other Formats
Station Details ID: 054038 Name: NARRABRI AIRPORT AWS Lat: -30.32 Lon: 149.83 Height: 229.02 m
Data from the previous 72 hours. | See also: Recent months at Narrabri
Date/Time
EDT
Temp
°C
App
Temp
°C
Dew
Point
°C
Rel
Hum
%
Delta-T
°C
Wind Press
QNH
hPa
Press
MSL
hPa
Rain since
9am
mm
Dir  Spd
km/h
Gust
km/h
Spd
kts
Gust
kts
21/03:00pm 32.9 30.8 12.5 29 12.3 SSW 15 28 8 15 1007.9 1006.4 0.2
21/02:30pm 32.4 30.4 11.6 28 12.3 WSW 13 17 7 9 1008.0 1006.5 0.2
21/02:00pm 32.7 31.0 12.3 28 12.2 SSW 13 22 7 12 1008.2 1006.7 0.2
21/01:30pm 31.4 29.5 11.7 29 11.6 SW 13 22 7 12 1008.4 1006.9 0.2
21/01:00pm 30.5 30.0 13.7 35 10.2 SSW 9 24 5 13 1008.5 1007.0 0.2
21/12:30pm 29.8 29.0 14.0 38 9.6 SE 11 24 6 13 1008.7 1007.2 0.2
21/12:00pm 29.0 28.1 14.8 42 8.7 S 13 28 7 15 1008.8 1007.3 0.2
21/11:30am 28.0 27.3 14.3 43 8.3 S 11 19 6 10 1008.8 1007.3 0.0
21/11:00am 27.4 26.5 14.8 46 7.7 S 13 22 7 12 1009.0 1007.6 0.0
21/10:30am 26.8 26.6 16.7 54 6.3 SE 13 28 7 15 1009.0 1007.6 0.0
21/10:00am 26.2 25.2 16.7 56 5.9 SSE 17 26 9 14 1008.9 1007.5 0.0
21/09:30am 25.6 24.6 16.5 57 5.7 SE 17 24 9 13 1008.7 1007.2 0.0
21/09:00am 24.9 24.4 17.9 65 4.4 S 17 30 9 16 1008.5 1007.0 21.2
21/08:30am 24.3 23.9 18.0 68 4.0 SSE 17 22 9 12 1008.4 1006.9 21.2
21/08:00am 23.5 23.8 17.9 71 3.5 SSE 13 19 7 10 1008.2 1006.7 21.2
21/07:30am 22.6 22.6 17.3 72 3.3 SSE 13 19 7 10 1008.0 1006.5 21.2
21/07:00am 21.8 22.4 17.8 78 2.5 SSE 11 15 6 8 1007.5 1006.0 21.2
21/06:30am 21.2 22.1 17.6 80 2.2 S 9 13 5 7 1006.9 1005.5 21.2
21/06:00am 21.7 22.7 17.7 78 2.5 S 9 11 5 6 1006.6 1005.2 21.2
21/05:30am 22.6 23.5 18.4 77 2.7 S 11 15 6 8 1006.2 1004.8 21.2
21/05:00am 23.2 24.2 20.2 83 2.0 S 15 20 8 11 1005.7 1004.3 21.2
21/04:30am 23.8 25.5 20.9 84 1.9 SSW 13 17 7 9 1005.5 1004.1 21.2
21/04:00am 24.0 25.6 20.7 82 2.2 SSW 13 17 7 9 1005.3 1003.9 21.2
21/03:30am 24.5 26.6 21.0 81 2.3 SW 11 15 6 8 1005.3 1003.9 21.2
21/03:00am 24.7 26.4 21.0 80 2.5 SW 13 20 7 11 1005.4 1004.0 21.2
21/02:30am 25.0 26.8 21.1 79 2.6 SW 13 20 7 11 1005.3 1003.9 21.2
21/02:00am 25.4 26.2 20.6 75 3.2 SW 17 24 9 13 1004.8 1003.3 21.2
21/01:30am 25.6 27.3 21.7 79 2.6 WSW 15 20 8 11 1004.8 1003.3 21.2
21/01:00am 25.6 28.1 21.7 79 2.6 WSW 11 17 6 9 1004.8 1003.3 21.2
21/12:30am 26.1 29.1 22.0 78 2.8 WSW 9 13 5 7 1004.9 1003.4 21.2
21/12:00am 26.6 28.2 21.4 73 3.5 W 15 24 8 13 1004.7 1003.2 21.2
 
Date/Time
EDT
Temp
°C
App
Temp
°C
Dew
Point
°C
Rel
Hum
%
Delta-T
°C
Wind Press
QNH
hPa
Press
MSL
hPa
Rain since
9am
mm
Dir  Spd
km/h
Gust
km/h
Spd
kts
Gust
kts
20/11:30pm 26.6 28.4 21.1 72 3.7 NW 13 17 7 9 1004.4 1002.9 21.2
20/11:00pm 26.8 29.3 21.8 74 3.4 NW 11 15 6 8 1004.3 1002.8 21.2
20/10:30pm 26.5 29.5 22.6 79 2.7 N 11 15 6 8 1004.2 1002.7 21.2
20/10:00pm 25.9 29.4 22.8 83 2.1 NNE 9 13 5 7 1003.5 1002.0 21.2
20/09:30pm 25.3 27.6 22.8 86 1.7 NE 15 19 8 10 1003.0 1001.5 21.2
20/09:00pm 25.1 27.7 22.6 86 1.7 NE 13 15 7 8 1002.8 1001.3 21.2
20/08:30pm 25.3 29.1 22.4 84 2.0 WNW 6 9 3 5 1002.6 1001.1 21.2
20/08:00pm 24.5 26.3 21.8 85 1.8 W 15 22 8 12 1002.2 1000.8 21.2
20/07:59pm 24.4 26.2 21.9 86 1.7 WSW 15 22 8 12 1002.2 1000.8 21.2
20/07:41pm 26.2 26.6 21.8 77 3.0 NNW 22 72 12 39 1002.7 1001.2 12.8
20/07:40pm 27.6 29.4 23.2 77 3.0 NNW 19 37 10 20 1002.7 1001.2 11.8
20/07:30pm 29.1 30.5 22.8 69 4.3 N 20 28 11 15 1000.5 999.0 9.2
20/07:00pm 30.4 32.2 22.6 63 5.4 NNW 17 22 9 12 1000.7 999.2 9.2
20/06:30pm 30.7 32.4 23.1 64 5.3 N 19 24 10 13 1000.5 999.0 9.2
20/06:00pm 30.0 32.3 22.7 65 5.0 N 15 20 8 11 1000.7 999.2 9.2
20/05:30pm 29.0 31.8 23.0 70 4.1 N 13 19 7 10 1000.9 999.4 9.2
20/05:00pm 28.6 31.3 22.8 71 4.0 N 13 17 7 9 1001.2 999.8 9.2
20/04:30pm 27.8 30.1 22.7 74 3.5 N 15 19 8 10 1001.5 1000.1 9.2
20/04:00pm 27.0 30.2 23.0 79 2.8 NNE 11 13 6 7 1001.7 1000.3 9.2
20/03:30pm 25.9 29.6 23.2 85 1.9 NNE 9 11 5 6 1002.6 1001.1 9.2
20/03:00pm 25.1 28.0 22.4 85 1.8 WNW 11 15 6 8 1003.0 1001.5 9.0
20/02:33pm 24.7 24.3 22.4 87 1.6 W 28 37 15 20 1003.2 1001.7 9.0
20/02:30pm 24.7 23.6 22.4 87 1.6 W 32 43 17 23 1003.3 1001.8 8.6
20/02:27pm 24.5 22.7 22.2 87 1.5 WSW 35 46 19 25 1003.3 1001.8 8.6
20/02:08pm 23.8 18.8 21.5 87 1.5 SW 50 69 27 37 1003.2 1001.7 5.6
20/02:00pm 24.3 20.2 20.8 81 2.3 W 43 70 23 38 1002.8 1001.3 0.6
20/01:55pm 29.0 26.0 18.7 53 6.7 NW 32 70 17 38 1003.1 1001.6 0.0
20/01:54pm 32.1 30.7 20.4 50 7.8 NNW 28 54 15 29 1002.3 1000.9 0.0
20/01:30pm 35.0 31.6 19.8 41 10.2 N 37 50 20 27 1001.5 1000.1 0.0
20/01:00pm 35.2 30.7 19.1 38 10.7 N 41 56 22 30 1002.2 1000.8 0.0
20/12:30pm 34.9 30.5 20.1 42 10.0 N 43 54 23 29 1003.0 1001.5 0.0
20/12:00pm 33.3 28.5 19.7 44 9.1 N 44 61 24 33 1003.5 1002.0 0.0
20/11:32am 32.5 28.1 20.1 48 8.3 N 43 61 23 33 1004.2 1002.7 0.0
20/11:30am 32.2 27.5 19.8 48 8.3 N 44 61 24 33 1004.2 1002.7 0.0
20/11:00am 31.5 26.8 19.8 49 7.8 N 44 59 24 32 1004.5 1003.0 0.0
20/10:30am 29.7 24.8 19.4 54 6.8 N 44 59 24 32 1004.7 1003.2 0.0
20/10:15am 29.7 25.1 19.7 55 6.6 N 43 63 23 34 1004.8 1003.3 0.0
20/10:00am 28.9 24.2 19.5 57 6.2 N 43 56 23 30 1004.9 1003.4 0.0
20/09:30am 28.7 24.2 19.1 56 6.3 N 41 56 22 30 1005.3 1003.9 0.0
20/09:00am 28.2 24.2 19.4 59 5.8 NNE 39 54 21 29 1005.7 1004.3 0.0
20/08:30am 27.1 22.3 19.2 62 5.1 NNE 43 56 23 30 1006.0 1004.6 0.0
20/08:00am 27.3 22.8 19.1 61 5.3 NNE 41 54 22 29 1005.6 1004.2 0.0
20/07:42am 27.2 22.2 19.3 62 5.1 NNE 44 63 24 34 1005.6 1004.2 0.0
20/07:30am 26.6 21.0 18.7 62 5.1 NNE 46 57 25 31 1005.2 1003.8 0.0
20/07:00am 26.5 21.5 18.9 63 4.9 NNE 43 57 23 31 1005.1 1003.7 0.0
20/06:31am 26.2 22.0 18.9 64 4.7 NNE 39 61 21 33 1005.0 1003.6 0.0
20/06:30am 26.2 22.0 18.9 64 4.7 NNE 39 50 21 27 1005.0 1003.6 0.0
20/06:00am 26.2 22.0 18.9 64 4.7 NNE 39 50 21 27 1004.8 1003.3 0.0
20/05:30am 26.1 22.7 19.0 65 4.6 NNE 35 54 19 29 1004.9 1003.4 0.0
20/05:26am 26.1 22.7 19.0 65 4.6 NNE 35 54 19 29 1004.8 1003.3 0.0
20/05:00am 26.9 24.3 18.7 60 5.3 N 30 41 16 22 1004.6 1003.1 0.0
20/04:30am 27.4 25.7 18.9 59 5.5 NNE 26 35 14 19 1004.4 1002.9 0.0
20/04:00am 27.7 25.9 18.7 58 5.8 NNE 26 35 14 19 1004.9 1003.4 0.0
20/03:30am 27.7 26.4 19.0 59 5.7 NNE 24 35 13 19 1004.9 1003.4 0.0
20/03:00am 27.1 25.0 18.9 61 5.3 NNE 28 39 15 21 1005.2 1003.8 0.0
20/02:30am 27.2 25.4 18.8 60 5.4 NNE 26 33 14 18 1005.7 1004.3 0.0
20/02:00am 27.4 26.0 18.7 59 5.6 NNE 24 32 13 17 1005.9 1004.5 0.0
20/01:30am 27.6 24.4 18.6 58 5.8 NNE 33 43 18 23 1005.8 1004.4 0.0
20/01:00am 27.8 24.6 18.5 57 6.0 NNE 33 44 18 24 1006.1 1004.7 0.0
20/12:30am 28.3 24.4 18.7 56 6.2 NNE 37 50 20 27 1006.2 1004.8 0.0
20/12:00am 28.8 25.0 18.9 55 6.5 NNE 37 48 20 26 1006.0 1004.6 0.0
 
Date/Time
EDT
Temp
°C
App
Temp
°C
Dew
Point
°C
Rel
Hum
%
Delta-T
°C
Wind Press
QNH
hPa
Press
MSL
hPa
Rain since
9am
mm
Dir  Spd
km/h
Gust
km/h
Spd
kts
Gust
kts
19/11:30pm 29.6 24.9 18.7 52 7.1 NNE 41 56 22 30 1006.4 1005.0 0.0
19/11:00pm 30.9 27.0 17.9 45 8.4 NNE 35 54 19 29 1006.3 1004.9 0.0
19/10:56pm 31.4 28.0 17.7 44 8.8 NE 32 52 17 28 1006.4 1005.0 0.0
19/10:43pm 32.3 28.4 17.0 40 9.8 ENE 33 48 18 26 1006.2 1004.8 0.0
19/10:40pm 32.5 29.5 16.8 39 10.0 E 28 48 15 26 1006.2 1004.8 0.0
19/10:35pm 32.8 30.9 15.8 36 10.7 ESE 20 41 11 22 1005.9 1004.5 0.0
19/10:30pm 32.1 30.5 15.1 35 10.6 SE 17 22 9 12 1005.6 1004.2 0.0
19/10:00pm 32.7 30.7 13.8 31 11.6 SE 17 24 9 13 1005.2 1003.8 0.0
19/09:30pm 33.5 31.2 13.0 29 12.4 SE 17 22 9 12 1005.2 1003.8 0.0
19/09:00pm 34.1 32.4 13.5 28 12.7 SSE 15 22 8 12 1004.9 1003.4 0.0
19/08:30pm 34.7 32.4 14.0 28 12.8 SE 19 28 10 15 1004.5 1003.0 0.0
19/08:00pm 35.5 33.2 14.2 28 13.3 SSE 19 26 10 14 1004.3 1002.8 0.0
19/07:30pm 37.1 36.0 14.4 26 14.2 SE 13 19 7 10 1004.0 1002.5 0.0
19/07:00pm 38.4 37.1 13.6 23 15.5 S 13 17 7 9 1003.9 1002.4 0.0
19/06:30pm 39.6 38.0 11.7 19 17.0 SW 11 15 6 8 1003.7 1002.2 0.0
19/06:00pm 39.5 37.8 12.4 20 16.7 WSW 13 22 7 12 1003.7 1002.2 0.0
19/05:30pm 39.9 36.4 10.2 17 17.7 SW 19 28 10 15 1003.8 1002.3 0.0
19/05:00pm 39.5 37.2 13.1 21 16.4 SW 17 30 9 16 1004.1 1002.6 0.0
19/04:30pm 39.5 37.1 14.5 23 15.8 WSW 20 32 11 17 1004.7 1003.2 0.0
19/04:00pm 39.8 37.7 14.8 23 15.9 SW 19 28 10 15 1005.2 1003.8 0.0
19/03:30pm 39.2 38.2 15.6 25 15.1 WSW 15 28 8 15 1005.9 1004.5 0.0
19/03:00pm 39.0 37.0 15.4 25 15.1 NW 20 30 11 16 1006.4 1005.0 0.0
19/02:30pm 39.2 38.0 16.2 26 14.9 WSW 17 24 9 13 1006.8 1005.4 0.0
19/02:00pm 38.0 36.9 16.3 27 14.0 W 17 28 9 15 1007.4 1005.9 0.0
19/01:30pm 37.8 37.6 16.7 29 13.7 SW 13 20 7 11 1007.7 1006.2 0.0
19/01:00pm 37.5 36.6 15.9 28 13.9 W 15 28 8 15 1008.1 1006.6 0.0
19/12:30pm 37.1 38.2 17.1 30 13.0 NW 7 15 4 8 1008.5 1007.0 0.0
19/12:00pm 35.2 36.3 16.5 33 12.0 N 6 13 3 7 1008.9 1007.5 0.0
19/11:30am 34.3 35.2 16.6 34 11.3 NE 7 17 4 9 1009.4 1008.0 0.0
19/11:00am 33.4 34.9 18.0 40 10.0 WSW 7 11 4 6 1009.7 1008.3 0.0
19/10:30am 31.7 32.8 17.9 43 8.9 SSW 9 17 5 9 1010.0 1008.6 0.0
19/10:00am 30.5 30.5 18.2 47 8.0 SE 15 20 8 11 1009.9 1008.5 0.0
19/09:30am 29.2 29.3 19.2 54 6.5 SE 17 24 9 13 1010.2 1008.8 0.0
19/09:00am 27.6 27.7 19.1 59 5.5 SE 17 28 9 15 1010.2 1008.8 0.0
19/08:30am 25.9 26.0 18.3 63 4.9 SE 15 22 8 12 1010.2 1008.8 0.0
19/08:00am 24.8 23.7 18.7 69 3.9 SSE 22 32 12 17 1010.1 1008.7 0.0
19/07:30am 23.8 23.2 18.9 74 3.1 SSE 20 28 11 15 1009.9 1008.5 0.0
19/07:00am 22.7 22.0 18.7 78 2.5 SE 20 32 11 17 1009.7 1008.3 0.0
19/06:30am 22.2 21.6 18.4 79 2.4 SSE 19 26 10 14 1009.4 1008.0 0.0
19/06:00am 22.6 22.0 18.8 79 2.4 SSE 20 30 11 16 1009.1 1007.7 0.0
19/05:30am 22.9 21.8 18.7 77 2.7 SSE 22 32 12 17 1008.6 1007.1 0.0
19/05:00am 23.2 22.1 18.7 76 2.9 SE 22 33 12 18 1008.6 1007.1 0.0
19/04:30am 23.5 22.5 18.8 75 3.0 SE 22 32 12 17 1008.5 1007.0 0.0
19/04:00am 23.8 24.2 18.9 74 3.1 SSE 15 22 8 12 1008.7 1007.2 0.0
19/03:30am 24.0 24.2 18.6 72 3.4 SSE 15 20 8 11 1008.7 1007.2 0.0
19/03:00am 24.2 24.7 18.4 70 3.7 S 13 19 7 10 1008.6 1007.1 0.0
19/02:30am 24.2 24.8 18.6 71 3.6 S 13 17 7 9 1008.8 1007.3 0.0
19/02:00am 24.4 24.9 18.3 69 3.9 S 13 17 7 9 1009.2 1007.8 0.0
19/01:30am 25.0 24.6 18.0 65 4.4 S 17 22 9 12 1009.3 1007.9 0.0
19/01:00am 25.7 24.6 17.4 60 5.2 S 19 28 10 15 1009.4 1008.0 0.0
19/12:30am 27.7 27.5 16.6 50 7.0 E 13 17 7 9 1009.2 1007.8 0.0
19/12:00am 26.9 27.7 17.4 56 6.0 ENE 9 11 5 6 1009.5 1008.1 0.0
 
Date/Time
EDT
Temp
°C
App
Temp
°C
Dew
Point
°C
Rel
Hum
%
Delta-T
°C
Wind Press
QNH
hPa
Press
MSL
hPa
Rain since
9am
mm
Dir  Spd
km/h
Gust
km/h
Spd
kts
Gust
kts
18/11:30pm 28.0 28.3 16.9 51 7.0 E 11 15 6 8 1010.2 1008.8 0.0
18/11:00pm 26.8 26.3 17.8 57 5.7 ENE 17 20 9 11 1010.1 1008.7 0.0
18/10:30pm 26.1 26.5 19.0 65 4.6 E 15 19 8 10 1011.3 1009.9 0.0
18/10:00pm 26.6 27.4 18.2 60 5.4 ESE 11 19 6 10 1012.1 1010.6 0.0
18/09:30pm 26.0 27.1 17.9 61 5.1 S 9 13 5 7 1012.8 1011.3 0.0
18/09:00pm 27.8 24.8 16.7 50 7.0 SSW 28 37 15 20 1012.8 1011.3 0.0
18/08:52pm 28.3 25.1 16.2 47 7.6 SW 28 46 15 25 1012.6 1011.1 0.0
18/08:30pm 31.1 28.2 15.1 38 9.9 SSW 24 32 13 17 1011.3 1009.9 0.0
18/08:17pm 31.0 27.6 15.8 40 9.5 SSW 28 46 15 25 1010.7 1009.3 0.0
18/08:00pm 31.5 28.0 15.5 38 10.0 S 28 41 15 22 1010.0 1008.6 0.0
18/07:33pm 35.2 33.0 14.5 29 12.9 WNW 19 43 10 23 1009.1 1007.7 0.0
18/07:30pm 36.1 34.2 14.1 26 13.7 WNW 17 20 9 11 1008.5 1007.0 0.0
18/07:00pm 37.1 35.5 13.8 25 14.5 NW 15 20 8 11 1008.1 1006.6 0.0
18/06:30pm 37.7 36.0 13.7 24 14.9 NW 15 22 8 12 1007.8 1006.3 0.0
18/06:00pm 38.6 36.8 14.4 24 15.3 WNW 17 22 9 12 1007.7 1006.2 0.0
18/05:30pm 38.7 38.3 15.1 24 15.0 WNW 11 22 6 12 1007.4 1005.9 0.0
18/05:00pm 38.1 36.7 14.6 24 14.9 NW 15 30 8 16 1007.4 1005.9 0.0
18/04:30pm 38.2 36.5 14.7 24 14.9 NW 17 24 9 13 1008.1 1006.6 0.0
18/04:00pm 38.3 37.0 14.8 25 14.9 WNW 15 26 8 14 1008.8 1007.3 0.0
18/03:30pm 36.8 36.4 14.1 25 14.2 WNW 9 15 5 8 1009.6 1008.2 0.0

Other Formats:

Comma delimited format used in spreadsheet applications
http://www.bom.gov.au/fwo/IDN60801/IDN60801.95734.axf

JavaScript Object Notation format (JSON) in row-major order
http://www.bom.gov.au/fwo/IDN60801/IDN60801.95734.json